createdAt,value
2023-03-06T00:00:49.962Z,101062.66
2023-03-06T00:03:16.806Z,101053.50
2023-03-06T00:05:43.215Z,101051.44
2023-03-06T00:08:09.618Z,101040.69
2023-03-06T00:10:36.079Z,101048.81
2023-03-06T00:13:05.359Z,101043.78
2023-03-06T00:15:35.280Z,101039.34
2023-03-06T00:18:06.869Z,101037.97
2023-03-06T00:20:34.963Z,101034.03
2023-03-06T00:23:01.625Z,101031.94
2023-03-06T00:25:27.941Z,101037.97
2023-03-06T00:27:54.256Z,101030.06
2023-03-06T00:30:22.859Z,101019.81
2023-03-06T00:32:49.978Z,101021.09
2023-03-06T00:35:17.278Z,101024.97
2023-03-06T00:37:44.011Z,101017.66
2023-03-06T00:40:14.514Z,101021.31
2023-03-06T00:42:41.355Z,101017.91
2023-03-06T00:45:08.223Z,101017.59
2023-03-06T00:47:34.603Z,101001.59
2023-03-06T00:50:00.922Z,100991.91
2023-03-06T00:52:27.382Z,100989.53
2023-03-06T00:54:53.824Z,100986.13
2023-03-06T00:57:20.154Z,100983.00
2023-03-06T00:59:46.462Z,100987.19
2023-03-06T01:02:13.060Z,100977.75
2023-03-06T01:04:39.517Z,100978.78
2023-03-06T01:07:05.918Z,100973.78
2023-03-06T01:09:32.511Z,100971.44
2023-03-06T01:11:59.093Z,100966.97
2023-03-06T01:14:25.954Z,100963.06
2023-03-06T01:16:53.919Z,100954.41
2023-03-06T01:19:20.403Z,100957.81
2023-03-06T01:21:46.771Z,100948.94
2023-03-06T01:24:13.333Z,100950.53
2023-03-06T01:26:39.673Z,100951.78
2023-03-06T01:29:06.311Z,100950.78
2023-03-06T01:31:32.856Z,100957.81
2023-03-06T01:33:59.238Z,100955.47
2023-03-06T01:36:25.551Z,100959.13
2023-03-06T01:38:51.892Z,100951.53
2023-03-06T01:41:18.374Z,100951.53
2023-03-06T01:43:46.239Z,100954.69
2023-03-06T01:46:34.314Z,100952.59
2023-03-06T01:49:08.297Z,100950.53
2023-03-06T01:51:39.613Z,100952.09
2023-03-06T01:54:12.053Z,100950.00
2023-03-06T01:56:41.828Z,100946.84
2023-03-06T01:59:08.305Z,100945.78
2023-03-06T02:01:35.448Z,100934.25
2023-03-06T02:04:02.271Z,100936.84
2023-03-06T02:06:28.588Z,100934.22
2023-03-06T02:08:55.984Z,100922.41
2023-03-06T02:11:24.648Z,100923.94
2023-03-06T02:13:53.541Z,100923.66
2023-03-06T02:16:26.623Z,100918.41
2023-03-06T02:18:54.238Z,100916.78
2023-03-06T02:21:35.536Z,100916.75
2023-03-06T02:24:15.892Z,100913.84
2023-03-06T02:26:43.650Z,100921.94
2023-03-06T02:29:09.977Z,100919.84
2023-03-06T02:31:36.493Z,100919.84
2023-03-06T02:34:04.409Z,100912.25
2023-03-06T02:36:33.558Z,100908.06
2023-03-06T02:39:00.214Z,100908.34
2023-03-06T02:41:26.855Z,100898.88
2023-03-06T02:43:53.162Z,100897.09
2023-03-06T02:46:19.593Z,100904.94
2023-03-06T02:48:45.945Z,100894.19
2023-03-06T02:51:12.258Z,100895.03
2023-03-06T02:53:38.658Z,100885.38
2023-03-06T02:56:05.380Z,100886.97
2023-03-06T02:58:31.722Z,100878.91
2023-03-06T03:00:58.027Z,100873.44
2023-03-06T03:03:24.435Z,100859.31
2023-03-06T03:05:50.741Z,100855.69
2023-03-06T03:08:17.724Z,100864.13
2023-03-06T03:10:44.173Z,100853.66
2023-03-06T03:13:10.594Z,100857.31
2023-03-06T03:15:36.945Z,100848.97
2023-03-06T03:18:03.432Z,100837.94
2023-03-06T03:20:30.090Z,100835.88
2023-03-06T03:22:56.648Z,100831.94
2023-03-06T03:25:25.010Z,100839.81
2023-03-06T03:27:51.454Z,100833.31
2023-03-06T03:30:17.876Z,100824.13
2023-03-06T03:32:44.242Z,100822.03
2023-03-06T03:35:12.144Z,100826.75
2023-03-06T03:37:39.071Z,100824.41
2023-03-06T03:40:07.125Z,100825.44
2023-03-06T03:42:36.629Z,100813.69
2023-03-06T03:45:03.104Z,100812.13
2023-03-06T03:47:29.457Z,100806.88
2023-03-06T03:49:55.757Z,100810.53
2023-03-06T03:52:22.174Z,100807.69
2023-03-06T03:54:48.594Z,100802.94
2023-03-06T03:57:14.947Z,100802.69
2023-03-06T03:59:41.291Z,100799.56
2023-03-06T04:02:09.063Z,100800.06
2023-03-06T04:04:35.515Z,100806.63
2023-03-06T04:07:01.924Z,100799.28
2023-03-06T04:09:28.300Z,100793.78
2023-03-06T04:11:54.839Z,100792.47
2023-03-06T04:14:21.225Z,100792.47
2023-03-06T04:16:47.612Z,100791.41
2023-03-06T04:19:13.949Z,100791.94
2023-03-06T04:21:40.326Z,100786.44
2023-03-06T04:24:07.160Z,100789.03
2023-03-06T04:26:33.498Z,100782.78
2023-03-06T04:28:59.862Z,100768.59
2023-03-06T04:31:26.249Z,100777.25
2023-03-06T04:33:52.598Z,100773.06
2023-03-06T04:36:29.037Z,100777.25
2023-03-06T04:38:59.319Z,100773.06
2023-03-06T04:41:26.354Z,100763.88
2023-03-06T04:43:53.189Z,100773.59
2023-03-06T04:46:19.641Z,100765.72
2023-03-06T04:48:46.056Z,100762.03
2023-03-06T04:51:13.606Z,100759.16
2023-03-06T04:53:39.960Z,100754.72
2023-03-06T04:56:06.967Z,100760.75
2023-03-06T04:58:33.602Z,100755.22
2023-03-06T05:00:59.919Z,100746.28
2023-03-06T05:03:26.286Z,100758.63
2023-03-06T05:05:52.642Z,100759.94
2023-03-06T05:08:18.970Z,100758.63
2023-03-06T05:10:45.559Z,100758.34
2023-03-06T05:13:12.480Z,100756.28
2023-03-06T05:15:41.947Z,100750.75
2023-03-06T05:18:08.281Z,100746.28
2023-03-06T05:20:34.635Z,100751.00
2023-03-06T05:23:00.946Z,100745.75
2023-03-06T05:25:27.339Z,100753.09
2023-03-06T05:27:53.674Z,100755.44
2023-03-06T05:30:23.021Z,100754.38
2023-03-06T05:32:50.336Z,100746.00
2023-03-06T05:35:20.063Z,100743.09
2023-03-06T05:37:46.815Z,100743.09
2023-03-06T05:40:14.721Z,100734.44
2023-03-06T05:42:41.575Z,100731.81
2023-03-06T05:45:08.718Z,100732.59
2023-03-06T05:47:35.146Z,100728.94
2023-03-06T05:50:01.799Z,100727.91
2023-03-06T05:52:28.147Z,100732.09
2023-03-06T05:54:54.893Z,100725.53
2023-03-06T05:57:23.346Z,100726.84
2023-03-06T05:59:50.187Z,100724.50
2023-03-06T06:02:18.189Z,100733.69
2023-03-06T06:04:44.830Z,100728.72
2023-03-06T06:07:14.534Z,100732.66
2023-03-06T06:09:41.252Z,100730.28
2023-03-06T06:12:07.930Z,100737.38
2023-03-06T06:14:34.690Z,100743.16
2023-03-06T06:17:01.153Z,100753.66
2023-03-06T06:19:31.350Z,100748.41
2023-03-06T06:21:58.086Z,100743.94
2023-03-06T06:24:26.785Z,100754.66
2023-03-06T06:26:55.933Z,100747.34
2023-03-06T06:29:23.599Z,100751.25
2023-03-06T06:31:50.386Z,100756.00
2023-03-06T06:34:16.883Z,100757.28
2023-03-06T06:36:43.602Z,100759.41
2023-03-06T06:39:13.385Z,100759.38
2023-03-06T06:41:57.042Z,100755.44
2023-03-06T06:44:26.031Z,100752.28
2023-03-06T06:47:21.794Z,100749.13
2023-03-06T06:49:39.492Z,100750.16
2023-03-06T06:52:06.730Z,100760.66
2023-03-06T06:54:34.597Z,100749.34
2023-03-06T06:57:00.913Z,100750.38
2023-03-06T06:59:27.320Z,100755.38
2023-03-06T07:01:53.904Z,100752.97
2023-03-06T07:04:20.406Z,100748.25
2023-03-06T07:06:47.010Z,100751.91
2023-03-06T07:09:13.897Z,100757.41
2023-03-06T07:11:40.977Z,100753.22
2023-03-06T07:14:07.902Z,100757.66
2023-03-06T07:16:34.323Z,100762.09
2023-03-06T07:19:00.704Z,100764.97
2023-03-06T07:21:27.246Z,100764.16
2023-03-06T07:23:54.256Z,100764.91
2023-03-06T07:26:20.624Z,100764.56
2023-03-06T07:28:52.621Z,100764.25
2023-03-06T07:31:25.159Z,100770.72
2023-03-06T07:33:53.000Z,100776.19
2023-03-06T07:36:20.495Z,100772.31
2023-03-06T07:38:46.850Z,100765.38
2023-03-06T07:41:14.439Z,100760.56
2023-03-06T07:43:42.387Z,100764.25
2023-03-06T07:46:09.376Z,100763.50
2023-03-06T07:48:37.313Z,100759.34
2023-03-06T07:51:06.924Z,100766.97
2023-03-06T07:53:34.500Z,100760.84
2023-03-06T07:56:01.056Z,100759.78
2023-03-06T07:58:27.375Z,100763.13
2023-03-06T08:00:53.730Z,100762.72
2023-03-06T08:03:20.205Z,100763.81
2023-03-06T08:05:46.569Z,100767.59
2023-03-06T08:08:12.897Z,100760.84
2023-03-06T08:10:39.296Z,100761.84
2023-03-06T08:13:06.319Z,100773.16
2023-03-06T08:15:32.639Z,100769.38
2023-03-06T08:17:59.077Z,100773.25
2023-03-06T08:20:25.778Z,100765.75
2023-03-06T08:22:52.137Z,100767.63
2023-03-06T08:25:18.653Z,100772.53
2023-03-06T08:27:46.655Z,100766.78
2023-03-06T08:30:13.569Z,100772.69
2023-03-06T08:32:40.118Z,100767.44
2023-03-06T08:35:07.523Z,100761.56
2023-03-06T08:37:33.944Z,100770.78
2023-03-06T08:40:02.513Z,100768.31
2023-03-06T08:42:28.865Z,100769.72
2023-03-06T08:44:55.279Z,100767.94
2023-03-06T08:47:21.623Z,100764.00
2023-03-06T08:49:47.991Z,100764.66
2023-03-06T08:52:16.873Z,100760.84
2023-03-06T08:54:43.287Z,100766.41
2023-03-06T08:57:09.600Z,100762.41
2023-03-06T08:59:36.893Z,100759.59
2023-03-06T09:02:05.322Z,100749.50
2023-03-06T09:04:31.814Z,100759.53
2023-03-06T09:07:00.558Z,100751.81
2023-03-06T09:09:26.896Z,100762.28
2023-03-06T09:11:53.558Z,100753.03
2023-03-06T09:14:19.888Z,100760.13
2023-03-06T09:16:46.255Z,100754.38
2023-03-06T09:19:12.628Z,100763.47
2023-03-06T09:21:39.162Z,100752.88
2023-03-06T09:24:05.684Z,100754.44
2023-03-06T09:26:45.054Z,100751.78
2023-03-06T09:29:13.000Z,100750.59
2023-03-06T09:31:39.386Z,100739.06
2023-03-06T09:34:05.721Z,100747.72
2023-03-06T09:36:40.126Z,100750.06
2023-03-06T09:39:12.339Z,100751.72
2023-03-06T09:41:41.482Z,100748.06
2023-03-06T09:44:16.186Z,100756.41
2023-03-06T09:46:57.447Z,100755.28
2023-03-06T09:49:41.991Z,100759.72
2023-03-06T09:52:23.481Z,100754.44
2023-03-06T09:54:58.914Z,100755.91
2023-03-06T09:57:35.364Z,100753.06
2023-03-06T10:00:06.736Z,100748.16
2023-03-06T10:02:40.975Z,100759.72
2023-03-06T10:05:13.605Z,100755.72
2023-03-06T10:07:46.835Z,100759.44
2023-03-06T10:10:55.018Z,100762.22
2023-03-06T10:13:46.837Z,100767.25
2023-03-06T10:16:26.071Z,100763.41
2023-03-06T10:18:54.163Z,100759.53
2023-03-06T10:21:27.230Z,100754.00
2023-03-06T10:23:58.388Z,100755.53
2023-03-06T10:26:27.828Z,100758.50
2023-03-06T10:29:12.534Z,100757.38
2023-03-06T10:31:44.639Z,100751.47
2023-03-06T10:34:16.915Z,100755.91
2023-03-06T10:36:43.299Z,100747.41
2023-03-06T10:39:15.744Z,100747.41
2023-03-06T10:41:43.299Z,100746.38
2023-03-06T10:44:13.165Z,100746.94
2023-03-06T10:46:43.103Z,100751.38
2023-03-06T10:49:30.188Z,100752.03
2023-03-06T10:52:01.579Z,100745.44
2023-03-06T10:54:30.830Z,100742.44
2023-03-06T10:56:57.171Z,100741.72
2023-03-06T10:59:29.370Z,100740.44
2023-03-06T11:01:58.427Z,100731.94
2023-03-06T11:04:28.554Z,100736.41
2023-03-06T11:07:21.753Z,100736.41
2023-03-06T11:09:57.281Z,100733.44
2023-03-06T11:12:23.677Z,100724.72
2023-03-06T11:15:12.596Z,100725.16
2023-03-06T11:17:50.302Z,100721.16
2023-03-06T11:20:51.884Z,100724.59
2023-03-06T11:23:41.235Z,100720.34
2023-03-06T11:26:16.617Z,100712.38
2023-03-06T11:29:00.788Z,100718.19
2023-03-06T11:32:07.815Z,100709.41
2023-03-06T11:34:41.463Z,100711.47
2023-03-06T11:37:20.181Z,100704.00
2023-03-06T11:39:53.270Z,100701.66
2023-03-06T11:42:43.818Z,100695.41
2023-03-06T11:45:29.373Z,100695.88
2023-03-06T11:48:13.879Z,100689.97
2023-03-06T11:50:45.800Z,100682.97
2023-03-06T11:53:33.642Z,100680.16
2023-03-06T11:56:16.006Z,100683.31
2023-03-06T11:59:07.682Z,100683.75
2023-03-06T12:01:41.801Z,100687.19
2023-03-06T12:04:36.882Z,100688.13
2023-03-06T12:07:40.598Z,100672.69
2023-03-06T12:10:52.800Z,100673.78
2023-03-06T12:13:35.160Z,100670.97
2023-03-06T12:16:01.745Z,100671.72
2023-03-06T12:18:36.960Z,100668.00
2023-03-06T12:21:07.028Z,100660.03
2023-03-06T12:24:07.162Z,100663.16
2023-03-06T12:27:08.950Z,100661.59
2023-03-06T12:30:04.094Z,100670.13
2023-03-06T12:32:45.682Z,100657.22
2023-03-06T12:35:29.463Z,100657.09
2023-03-06T12:38:11.031Z,100652.88
2023-03-06T12:41:28.898Z,100643.19
2023-03-06T12:44:24.321Z,100642.25
2023-03-06T12:46:59.107Z,100644.44
2023-03-06T12:49:38.464Z,100646.75
2023-03-06T12:52:07.571Z,100644.38
2023-03-06T12:54:38.013Z,100642.91
2023-03-06T12:57:07.338Z,100641.72
2023-03-06T12:59:36.773Z,100628.47
2023-03-06T13:02:21.313Z,100629.25
2023-03-06T13:05:04.973Z,100620.97
2023-03-06T13:07:52.887Z,100613.97
2023-03-06T13:10:33.508Z,100616.38
2023-03-06T13:13:38.619Z,100612.06
2023-03-06T13:16:12.830Z,100603.09
2023-03-06T13:18:42.130Z,100600.91
2023-03-06T13:21:44.390Z,100595.72
2023-03-06T13:24:37.474Z,100586.97
2023-03-06T13:27:12.393Z,100583.53
2023-03-06T13:29:38.636Z,100582.91
2023-03-06T13:34:56.398Z,100579.19
2023-03-06T13:37:23.146Z,100572.16
2023-03-06T13:39:55.638Z,100561.44
2023-03-06T13:42:33.023Z,100561.56
2023-03-06T13:45:15.365Z,100558.63
2023-03-06T13:48:19.499Z,100553.31
2023-03-06T13:50:47.278Z,100546.78
2023-03-06T13:53:49.103Z,100555.63
2023-03-06T13:56:15.403Z,100548.72
2023-03-06T13:59:17.570Z,100554.00
2023-03-06T14:02:02.393Z,100548.53
2023-03-06T14:04:35.676Z,100547.72
2023-03-06T14:07:06.244Z,100541.28
2023-03-06T14:09:42.534Z,100536.44
2023-03-06T14:12:36.635Z,100530.03
2023-03-06T14:15:14.952Z,100532.53
2023-03-06T14:17:54.377Z,100530.16
2023-03-06T14:20:22.534Z,100526.47
2023-03-06T14:22:49.240Z,100521.81
2023-03-06T14:25:31.752Z,100524.47
2023-03-06T14:28:05.686Z,100518.47
2023-03-06T14:30:49.035Z,100525.88
2023-03-06T14:33:27.639Z,100513.03
2023-03-06T14:35:56.682Z,100507.25
2023-03-06T14:38:23.107Z,100501.81
2023-03-06T14:40:49.478Z,100499.84
2023-03-06T14:43:22.864Z,100503.28
2023-03-06T14:45:55.971Z,100498.53
2023-03-06T14:48:24.451Z,100516.34
2023-03-06T14:50:53.191Z,100503.44
2023-03-06T14:53:28.098Z,100499.34
2023-03-06T14:56:04.453Z,100494.34
2023-03-06T14:58:38.220Z,100497.97
2023-03-06T15:01:13.121Z,100494.22
2023-03-06T15:03:50.088Z,100490.03
2023-03-06T15:06:24.245Z,100483.50
2023-03-06T15:09:27.809Z,100481.25
2023-03-06T15:12:01.181Z,100480.59
2023-03-06T15:14:55.579Z,100469.66
2023-03-06T15:17:26.120Z,100459.56
2023-03-06T15:19:58.098Z,100471.06
2023-03-06T15:22:38.749Z,100456.94
2023-03-06T15:25:30.009Z,100458.56
2023-03-06T15:28:22.562Z,100454.91
2023-03-06T15:31:10.535Z,100455.88
2023-03-06T15:33:37.609Z,100451.19
2023-03-06T15:36:06.261Z,100457.56
2023-03-06T15:38:41.896Z,100464.16
2023-03-06T15:41:31.714Z,100463.19
2023-03-06T15:43:59.952Z,100455.38
2023-03-06T15:46:26.335Z,100452.69
2023-03-06T15:49:04.169Z,100453.09
2023-03-06T15:51:32.101Z,100451.34
2023-03-06T15:54:09.861Z,100437.97
2023-03-06T15:56:40.744Z,100437.91
2023-03-06T15:59:10.697Z,100434.75
2023-03-06T16:01:37.488Z,100425.19
2023-03-06T16:04:04.196Z,100428.63
2023-03-06T16:06:30.566Z,100432.47
2023-03-06T16:08:57.135Z,100424.75
2023-03-06T16:11:35.337Z,100427.59
2023-03-06T16:14:18.852Z,100421.38
2023-03-06T16:16:45.582Z,100425.84
2023-03-06T16:19:25.264Z,100422.34
2023-03-06T16:21:52.718Z,100430.44
2023-03-06T16:24:19.190Z,100422.03
2023-03-06T16:26:48.043Z,100416.06
2023-03-06T16:29:19.789Z,100421.75
2023-03-06T16:31:46.898Z,100417.06
2023-03-06T16:34:14.024Z,100415.88
2023-03-06T16:36:40.754Z,100407.69
2023-03-06T16:39:13.475Z,100410.41
2023-03-06T16:41:39.905Z,100396.56
2023-03-06T16:44:07.726Z,100401.13
2023-03-06T16:46:38.540Z,100398.06
2023-03-06T16:49:04.886Z,100390.94
2023-03-06T16:51:31.779Z,100388.13
2023-03-06T16:53:58.082Z,100397.97
2023-03-06T16:56:24.420Z,100388.28
2023-03-06T16:58:50.819Z,100379.41
2023-03-06T17:01:19.026Z,100387.59
2023-03-06T17:03:45.813Z,100388.47
2023-03-06T17:06:18.021Z,100389.06
2023-03-06T17:08:45.223Z,100383.28
2023-03-06T17:11:11.922Z,100379.69
2023-03-06T17:13:38.441Z,100373.41
2023-03-06T17:16:05.260Z,100371.66
2023-03-06T17:18:31.688Z,100366.16
2023-03-06T17:20:58.896Z,100360.97
2023-03-06T17:23:27.180Z,100353.69
2023-03-06T17:26:07.031Z,100351.59
2023-03-06T17:28:34.821Z,100348.00
2023-03-06T17:31:02.845Z,100351.19
2023-03-06T17:33:29.622Z,100345.44
2023-03-06T17:36:00.406Z,100345.22
2023-03-06T17:38:27.110Z,100349.22
2023-03-06T17:40:53.600Z,100343.19
2023-03-06T17:43:20.805Z,100346.09
2023-03-06T17:45:47.458Z,100341.91
2023-03-06T17:48:14.359Z,100335.06
2023-03-06T17:50:40.672Z,100335.84
2023-03-06T17:53:06.987Z,100328.25
2023-03-06T17:55:33.404Z,100327.66
2023-03-06T17:57:59.860Z,100325.56
2023-03-06T18:00:29.091Z,100327.88
2023-03-06T18:02:55.466Z,100322.16
2023-03-06T18:05:21.859Z,100318.72
2023-03-06T18:07:48.278Z,100316.88
2023-03-06T18:10:14.710Z,100312.97
2023-03-06T18:12:41.096Z,100314.03
2023-03-06T18:15:07.990Z,100325.91
2023-03-06T18:17:34.521Z,100316.75
2023-03-06T18:20:00.885Z,100324.94
2023-03-06T18:22:27.259Z,100312.34
2023-03-06T18:24:53.585Z,100314.19
2023-03-06T18:27:20.664Z,100308.16
2023-03-06T18:29:47.225Z,100307.94
2023-03-06T18:32:14.389Z,100304.81
2023-03-06T18:34:40.725Z,100300.13
2023-03-06T18:37:07.046Z,100292.31
2023-03-06T18:39:33.389Z,100287.13
2023-03-06T18:41:59.748Z,100286.13
2023-03-06T18:44:26.101Z,100275.91
2023-03-06T18:46:52.775Z,100281.44
2023-03-06T18:49:19.228Z,100273.34
2023-03-06T18:51:47.989Z,100271.00
2023-03-06T18:54:14.466Z,100264.47
2023-03-06T18:56:44.005Z,100257.94
2023-03-06T18:59:16.087Z,100260.84
2023-03-06T19:01:45.091Z,100260.13
2023-03-06T19:04:12.088Z,100247.59
2023-03-06T19:06:39.362Z,100256.31
2023-03-06T19:09:06.023Z,100242.69
2023-03-06T19:11:33.101Z,100233.50
2023-03-06T19:13:59.976Z,100236.72
2023-03-06T19:16:28.100Z,100229.88
2023-03-06T19:18:57.709Z,100225.22
2023-03-06T19:21:26.329Z,100229.69
2023-03-06T19:23:53.076Z,100226.53
2023-03-06T19:26:19.939Z,100216.31
2023-03-06T19:28:47.314Z,100215.84
2023-03-06T19:31:15.885Z,100215.31
2023-03-06T19:33:43.103Z,100210.38
2023-03-06T19:36:11.877Z,100199.16
2023-03-06T19:38:38.462Z,100202.34
2023-03-06T19:41:05.423Z,100194.25
2023-03-06T19:43:31.893Z,100200.84
2023-03-06T19:45:58.372Z,100190.34
2023-03-06T19:48:24.724Z,100183.53
2023-03-06T19:50:51.305Z,100185.66
2023-03-06T19:53:17.706Z,100183.03
2023-03-06T19:55:44.007Z,100178.84
2023-03-06T19:58:11.129Z,100172.81
2023-03-06T20:00:37.735Z,100163.09
2023-03-06T20:03:04.209Z,100155.22
2023-03-06T20:05:30.585Z,100146.56
2023-03-06T20:07:56.890Z,100149.97
2023-03-06T20:10:23.240Z,100140.25
2023-03-06T20:12:49.652Z,100132.06
2023-03-06T20:15:16.732Z,100127.59
2023-03-06T20:17:43.036Z,100123.91
2023-03-06T20:20:10.201Z,100126.75
2023-03-06T20:22:36.649Z,100119.34
2023-03-06T20:25:03.427Z,100115.09
2023-03-06T20:27:29.819Z,100105.88
2023-03-06T20:29:56.226Z,100099.25
2023-03-06T20:32:22.771Z,100100.53
2023-03-06T20:34:49.215Z,100093.63
2023-03-06T20:37:15.546Z,100079.16
2023-03-06T20:39:41.873Z,100073.31
2023-03-06T20:42:08.252Z,100073.03
2023-03-06T20:44:34.614Z,100076.66
2023-03-06T20:47:01.008Z,100074.22
2023-03-06T20:49:28.474Z,100060.50
2023-03-06T20:51:55.944Z,100063.63
2023-03-06T20:54:22.282Z,100060.41
2023-03-06T20:56:49.219Z,100056.44
2023-03-06T20:59:15.841Z,100056.63
2023-03-06T21:01:44.911Z,100045.53
2023-03-06T21:04:13.893Z,100038.13
2023-03-06T21:06:42.369Z,100045.75
2023-03-06T21:09:08.693Z,100037.56
2023-03-06T21:11:35.194Z,100040.66
2023-03-06T21:14:01.920Z,100045.38
2023-03-06T21:16:30.043Z,100035.31
2023-03-06T21:18:57.876Z,100035.81
2023-03-06T21:21:27.155Z,100024.25
2023-03-06T21:23:53.488Z,100027.34
2023-03-06T21:26:25.033Z,100019.94
2023-03-06T21:28:51.549Z,100023.53
2023-03-06T21:31:19.813Z,100014.56
2023-03-06T21:33:47.169Z,100002.97
2023-03-06T21:36:13.537Z,100010.31
2023-03-06T21:38:40.018Z,100006.03
2023-03-06T21:41:28.659Z,100006.97
2023-03-06T21:44:00.770Z,100000.34
2023-03-06T21:46:28.002Z,99986.91
2023-03-06T21:48:54.773Z,99996.06
2023-03-06T21:51:23.590Z,99999.66
2023-03-06T21:53:53.249Z,99998.78
2023-03-06T21:56:21.971Z,99987.69
2023-03-06T21:58:48.376Z,99996.81
2023-03-06T22:01:23.444Z,99999.66
2023-03-06T22:03:50.045Z,100006.16
2023-03-06T22:06:22.496Z,99998.16
2023-03-06T22:08:48.840Z,100004.09
2023-03-06T22:11:17.643Z,99994.06
2023-03-06T22:13:45.078Z,99997.63
2023-03-06T22:16:12.273Z,99987.88
2023-03-06T22:18:38.918Z,99976.09
2023-03-06T22:21:10.098Z,99967.91
2023-03-06T22:23:36.989Z,99970.53
2023-03-06T22:26:05.409Z,99975.81
2023-03-06T22:28:31.842Z,99967.44
2023-03-06T22:31:08.488Z,99973.16
2023-03-06T22:33:35.483Z,99972.41
2023-03-06T22:36:13.462Z,99978.13
2023-03-06T22:38:42.314Z,99973.94
2023-03-06T22:41:10.068Z,99962.66
2023-03-06T22:43:37.129Z,99972.41
2023-03-06T22:46:06.330Z,99965.59
2023-03-06T22:48:33.067Z,99952.72
2023-03-06T22:51:07.808Z,99967.75
2023-03-06T22:53:34.158Z,99963.53
2023-03-06T22:56:01.903Z,99969.88
2023-03-06T22:58:34.193Z,99963.84
2023-03-06T23:01:06.005Z,99959.19
2023-03-06T23:03:32.418Z,99959.47
2023-03-06T23:05:58.754Z,99962.88
2023-03-06T23:08:25.086Z,99956.81
2023-03-06T23:10:51.389Z,99952.06
2023-03-06T23:13:17.782Z,99949.44
2023-03-06T23:15:44.143Z,99957.91
2023-03-06T23:18:10.488Z,99961.63
2023-03-06T23:20:42.010Z,99964.25
2023-03-06T23:23:08.350Z,99960.53
2023-03-06T23:25:34.730Z,99953.72
2023-03-06T23:28:01.742Z,99953.25
2023-03-06T23:30:28.136Z,99949.81
2023-03-06T23:32:54.490Z,99944.75
2023-03-06T23:35:20.874Z,99945.72
2023-03-06T23:37:47.197Z,99943.56
2023-03-06T23:40:13.929Z,99944.34
2023-03-06T23:42:40.307Z,99947.94
2023-03-06T23:45:07.333Z,99944.72
2023-03-06T23:47:34.119Z,99947.34
2023-03-06T23:50:00.549Z,99944.09
2023-03-06T23:52:26.871Z,99938.25
2023-03-06T23:54:53.192Z,99941.16
2023-03-06T23:57:19.596Z,99941.66
2023-03-06T23:59:46.032Z,99949.72
